sensor_id;sensor_type;location;lat;lon;timestamp;pressure;altitude;pressure_sealevel;temperature;humidity
75247;BME280;63844;50.042;19.224;2024-03-25T00:00:59;97517.63;;;3.94;95.70
75247;BME280;63844;50.042;19.224;2024-03-25T00:02:48;97513.77;;;3.91;95.80
75247;BME280;63844;50.042;19.224;2024-03-25T00:04:24;97518.16;;;3.91;96.01
75247;BME280;63844;50.042;19.224;2024-03-25T00:06:01;97515.85;;;3.92;96.44
75247;BME280;63844;50.042;19.224;2024-03-25T00:07:38;97512.70;;;3.92;95.80
75247;BME280;63844;50.042;19.224;2024-03-25T00:09:14;97511.48;;;3.92;95.80
75247;BME280;63844;50.042;19.224;2024-03-25T00:10:50;97510.42;;;3.89;96.68
75247;BME280;63844;50.042;19.224;2024-03-25T00:12:27;97511.09;;;3.89;96.50
75247;BME280;63844;50.042;19.224;2024-03-25T00:14:04;97508.88;;;3.88;96.73
75247;BME280;63844;50.042;19.224;2024-03-25T00:15:40;97510.41;;;3.89;96.59
75247;BME280;63844;50.042;19.224;2024-03-25T00:17:18;97508.48;;;3.89;96.56
75247;BME280;63844;50.042;19.224;2024-03-25T00:18:55;97509.52;;;3.92;96.25
75247;BME280;63844;50.042;19.224;2024-03-25T00:20:32;97512.36;;;3.94;96.39
75247;BME280;63844;50.042;19.224;2024-03-25T00:22:08;97510.38;;;3.92;96.43
75247;BME280;63844;50.042;19.224;2024-03-25T00:23:45;97510.46;;;3.94;96.68
75247;BME280;63844;50.042;19.224;2024-03-25T00:25:21;97512.01;;;3.94;96.34
75247;BME280;63844;50.042;19.224;2024-03-25T00:26:58;97510.92;;;3.95;96.62
75247;BME280;63844;50.042;19.224;2024-03-25T00:28:34;97508.33;;;3.97;96.54
75247;BME280;63844;50.042;19.224;2024-03-25T00:30:11;97509.24;;;3.99;96.34
75247;BME280;63844;50.042;19.224;2024-03-25T00:31:48;97502.89;;;4.00;96.33
75247;BME280;63844;50.042;19.224;2024-03-25T00:33:24;97505.38;;;4.02;96.40
75247;BME280;63844;50.042;19.224;2024-03-25T00:35:01;97496.85;;;4.04;96.28
75247;BME280;63844;50.042;19.224;2024-03-25T00:36:38;97497.95;;;4.03;96.27
75247;BME280;63844;50.042;19.224;2024-03-25T00:38:14;97497.86;;;4.05;96.22
75247;BME280;63844;50.042;19.224;2024-03-25T00:39:50;97499.34;;;4.06;95.91
75247;BME280;63844;50.042;19.224;2024-03-25T00:41:27;97496.16;;;4.07;95.97
75247;BME280;63844;50.042;19.224;2024-03-25T00:43:03;97498.50;;;4.08;96.20
75247;BME280;63844;50.042;19.224;2024-03-25T00:44:39;97495.96;;;4.10;95.81
75247;BME280;63844;50.042;19.224;2024-03-25T00:46:16;97499.90;;;4.11;95.97
75247;BME280;63844;50.042;19.224;2024-03-25T00:47:52;97498.35;;;4.13;95.97
75247;BME280;63844;50.042;19.224;2024-03-25T00:49:28;97497.75;;;4.15;95.79
75247;BME280;63844;50.042;19.224;2024-03-25T00:51:05;97497.60;;;4.17;96.02
75247;BME280;63844;50.042;19.224;2024-03-25T00:52:42;97496.29;;;4.18;95.51
75247;BME280;63844;50.042;19.224;2024-03-25T00:54:18;97499.30;;;4.20;95.74
75247;BME280;63844;50.042;19.224;2024-03-25T00:55:55;97496.48;;;4.21;95.41
75247;BME280;63844;50.042;19.224;2024-03-25T00:57:31;97496.25;;;4.22;95.35
75247;BME280;63844;50.042;19.224;2024-03-25T00:59:09;97499.46;;;4.23;95.03
75247;BME280;63844;50.042;19.224;2024-03-25T01:00:45;97493.20;;;4.22;95.14
75247;BME280;63844;50.042;19.224;2024-03-25T01:02:21;97497.56;;;4.20;95.39
75247;BME280;63844;50.042;19.224;2024-03-25T01:03:58;97495.25;;;4.18;94.96
75247;BME280;63844;50.042;19.224;2024-03-25T01:05:35;97489.73;;;4.19;94.74
75247;BME280;63844;50.042;19.224;2024-03-25T01:07:11;97491.11;;;4.20;95.05
75247;BME280;63844;50.042;19.224;2024-03-25T01:08:48;97492.13;;;4.18;95.01
75247;BME280;63844;50.042;19.224;2024-03-25T01:10:24;97494.60;;;4.14;94.94
75247;BME280;63844;50.042;19.224;2024-03-25T01:12:02;97491.70;;;4.14;95.08
75247;BME280;63844;50.042;19.224;2024-03-25T01:13:39;97490.36;;;4.13;95.24
75247;BME280;63844;50.042;19.224;2024-03-25T01:15:17;97491.81;;;4.09;95.16
75247;BME280;63844;50.042;19.224;2024-03-25T01:16:53;97494.79;;;4.09;95.08
75247;BME280;63844;50.042;19.224;2024-03-25T01:18:30;97492.54;;;4.09;95.27
75247;BME280;63844;50.042;19.224;2024-03-25T01:20:07;97489.86;;;4.07;95.35
75247;BME280;63844;50.042;19.224;2024-03-25T01:21:45;97490.86;;;4.05;95.68
75247;BME280;63844;50.042;19.224;2024-03-25T01:23:21;97487.54;;;4.05;95.63
75247;BME280;63844;50.042;19.224;2024-03-25T01:24:58;97488.23;;;4.05;95.81
75247;BME280;63844;50.042;19.224;2024-03-25T01:26:41;97488.19;;;4.03;95.76
75247;BME280;63844;50.042;19.224;2024-03-25T01:28:17;97481.78;;;4.04;95.74
75247;BME280;63844;50.042;19.224;2024-03-25T01:29:53;97484.23;;;4.02;95.50
75247;BME280;63844;50.042;19.224;2024-03-25T01:31:30;97479.04;;;4.01;95.91
75247;BME280;63844;50.042;19.224;2024-03-25T01:33:06;97481.92;;;4.00;95.96
75247;BME280;63844;50.042;19.224;2024-03-25T01:34:43;97479.23;;;3.98;95.91
75247;BME280;63844;50.042;19.224;2024-03-25T01:36:19;97480.23;;;3.96;95.97
75247;BME280;63844;50.042;19.224;2024-03-25T01:37:55;97479.14;;;3.93;95.94
75247;BME280;63844;50.042;19.224;2024-03-25T01:39:31;97480.30;;;3.92;95.82
75247;BME280;63844;50.042;19.224;2024-03-25T01:41:09;97476.80;;;3.92;95.70
75247;BME280;63844;50.042;19.224;2024-03-25T01:42:59;97476.81;;;3.92;95.72
75247;BME280;63844;50.042;19.224;2024-03-25T01:44:36;97480.16;;;3.91;95.48
75247;BME280;63844;50.042;19.224;2024-03-25T01:46:17;97480.17;;;3.91;95.69
75247;BME280;63844;50.042;19.224;2024-03-25T01:47:54;97480.84;;;3.92;95.81
75247;BME280;63844;50.042;19.224;2024-03-25T01:49:32;97477.78;;;3.91;95.63
75247;BME280;63844;50.042;19.224;2024-03-25T01:51:09;97478.58;;;3.92;95.54
75247;BME280;63844;50.042;19.224;2024-03-25T01:52:46;97478.01;;;3.90;95.62
75247;BME280;63844;50.042;19.224;2024-03-25T01:54:23;97474.58;;;3.88;95.58
75247;BME280;63844;50.042;19.224;2024-03-25T01:56:00;97474.72;;;3.89;95.75
75247;BME280;63844;50.042;19.224;2024-03-25T01:57:36;97474.33;;;3.89;95.74
75247;BME280;63844;50.042;19.224;2024-03-25T01:59:16;97474.02;;;3.89;95.42
75247;BME280;63844;50.042;19.224;2024-03-25T02:00:54;97472.11;;;3.86;95.41
75247;BME280;63844;50.042;19.224;2024-03-25T02:02:31;97473.27;;;3.84;95.54
75247;BME280;63844;50.042;19.224;2024-03-25T02:04:11;97472.70;;;3.82;95.54
75247;BME280;63844;50.042;19.224;2024-03-25T02:05:51;97478.30;;;3.82;95.64
75247;BME280;63844;50.042;19.224;2024-03-25T02:07:30;97475.01;;;3.81;95.59
75247;BME280;63844;50.042;19.224;2024-03-25T02:09:08;97476.75;;;3.81;95.63
75247;BME280;63844;50.042;19.224;2024-03-25T02:10:46;97480.23;;;3.79;95.48
75247;BME280;63844;50.042;19.224;2024-03-25T02:12:23;97473.21;;;3.82;95.61
75247;BME280;63844;50.042;19.224;2024-03-25T02:14:00;97474.55;;;3.83;95.42
75247;BME280;63844;50.042;19.224;2024-03-25T02:15:37;97472.27;;;3.83;95.59
75247;BME280;63844;50.042;19.224;2024-03-25T02:17:13;97471.89;;;3.83;95.08
75247;BME280;63844;50.042;19.224;2024-03-25T02:18:50;97469.95;;;3.87;95.19
75247;BME280;63844;50.042;19.224;2024-03-25T02:20:27;97471.48;;;3.87;95.27
75247;BME280;63844;50.042;19.224;2024-03-25T02:22:04;97469.02;;;3.88;94.92
75247;BME280;63844;50.042;19.224;2024-03-25T02:23:42;97472.70;;;3.88;94.96
75247;BME280;63844;50.042;19.224;2024-03-25T02:25:21;97469.95;;;3.90;94.72
75247;BME280;63844;50.042;19.224;2024-03-25T02:26:58;97466.37;;;3.91;94.63
75247;BME280;63844;50.042;19.224;2024-03-25T02:28:35;97464.05;;;3.92;94.60
75247;BME280;63844;50.042;19.224;2024-03-25T02:30:13;97468.03;;;3.92;94.25
75247;BME280;63844;50.042;19.224;2024-03-25T02:31:50;97464.96;;;3.91;94.01
75247;BME280;63844;50.042;19.224;2024-03-25T02:33:29;97466.73;;;3.91;93.98
75247;BME280;63844;50.042;19.224;2024-03-25T02:35:07;97464.91;;;3.89;94.18
75247;BME280;63844;50.042;19.224;2024-03-25T02:36:46;97465.69;;;3.88;93.98
75247;BME280;63844;50.042;19.224;2024-03-25T02:38:23;97465.08;;;3.87;94.02
75247;BME280;63844;50.042;19.224;2024-03-25T02:40:00;97469.17;;;3.86;93.67
75247;BME280;63844;50.042;19.224;2024-03-25T02:41:37;97466.78;;;3.87;93.78
75247;BME280;63844;50.042;19.224;2024-03-25T02:43:14;97470.86;;;3.86;93.48
75247;BME280;63844;50.042;19.224;2024-03-25T02:44:50;97473.84;;;3.86;93.61
75247;BME280;63844;50.042;19.224;2024-03-25T02:46:27;97473.37;;;3.85;93.41
75247;BME280;63844;50.042;19.224;2024-03-25T02:48:03;97476.35;;;3.86;93.24
75247;BME280;63844;50.042;19.224;2024-03-25T02:49:40;97478.73;;;3.86;93.36
75247;BME280;63844;50.042;19.224;2024-03-25T02:51:17;97475.65;;;3.88;93.44
75247;BME280;63844;50.042;19.224;2024-03-25T02:52:53;97474.77;;;3.88;93.01
75247;BME280;63844;50.042;19.224;2024-03-25T02:54:29;97476.73;;;3.90;93.06
75247;BME280;63844;50.042;19.224;2024-03-25T02:56:06;97477.52;;;3.92;92.86
75247;BME280;63844;50.042;19.224;2024-03-25T02:57:42;97474.48;;;3.92;92.75
75247;BME280;63844;50.042;19.224;2024-03-25T02:59:18;97472.60;;;3.95;92.73
75247;BME280;63844;50.042;19.224;2024-03-25T03:00:55;97471.80;;;3.93;92.89
75247;BME280;63844;50.042;19.224;2024-03-25T03:02:31;97471.54;;;3.92;92.46
75247;BME280;63844;50.042;19.224;2024-03-25T03:04:08;97472.25;;;3.92;92.71
75247;BME280;63844;50.042;19.224;2024-03-25T03:05:44;97475.88;;;3.92;92.91
75247;BME280;63844;50.042;19.224;2024-03-25T03:07:21;97475.23;;;3.92;92.57
75247;BME280;63844;50.042;19.224;2024-03-25T03:08:57;97472.33;;;3.91;92.55
75247;BME280;63844;50.042;19.224;2024-03-25T03:10:33;97473.80;;;3.90;92.67
75247;BME280;63844;50.042;19.224;2024-03-25T03:12:10;97473.52;;;3.88;92.84
75247;BME280;63844;50.042;19.224;2024-03-25T03:13:46;97471.92;;;3.86;92.30
75247;BME280;63844;50.042;19.224;2024-03-25T03:15:22;97473.42;;;3.87;92.44
75247;BME280;63844;50.042;19.224;2024-03-25T03:16:59;97474.44;;;3.85;92.76
75247;BME280;63844;50.042;19.224;2024-03-25T03:18:35;97481.19;;;3.83;92.59
75247;BME280;63844;50.042;19.224;2024-03-25T03:20:11;97479.20;;;3.81;92.42
75247;BME280;63844;50.042;19.224;2024-03-25T03:21:48;97485.48;;;3.79;92.58
75247;BME280;63844;50.042;19.224;2024-03-25T03:23:24;97484.54;;;3.77;92.43
75247;BME280;63844;50.042;19.224;2024-03-25T03:25:01;97487.04;;;3.73;92.57
75247;BME280;63844;50.042;19.224;2024-03-25T03:26:37;97488.58;;;3.71;92.41
75247;BME280;63844;50.042;19.224;2024-03-25T03:28:13;97493.80;;;3.72;92.40
75247;BME280;63844;50.042;19.224;2024-03-25T03:29:51;97494.70;;;3.69;92.65
75247;BME280;63844;50.042;19.224;2024-03-25T03:31:27;97494.85;;;3.66;92.66
75247;BME280;63844;50.042;19.224;2024-03-25T03:33:04;97491.54;;;3.66;92.67
75247;BME280;63844;50.042;19.224;2024-03-25T03:34:40;97496.90;;;3.64;92.98
75247;BME280;63844;50.042;19.224;2024-03-25T03:36:19;97497.36;;;3.62;92.94
75247;BME280;63844;50.042;19.224;2024-03-25T03:37:56;97493.56;;;3.62;92.84
75247;BME280;63844;50.042;19.224;2024-03-25T03:39:32;97491.70;;;3.61;93.25
75247;BME280;63844;50.042;19.224;2024-03-25T03:41:08;97492.19;;;3.61;93.49
75247;BME280;63844;50.042;19.224;2024-03-25T03:42:45;97487.59;;;3.62;93.84
75247;BME280;63844;50.042;19.224;2024-03-25T03:44:21;97489.20;;;3.61;94.02
75247;BME280;63844;50.042;19.224;2024-03-25T03:45:57;97485.02;;;3.61;93.88
75247;BME280;63844;50.042;19.224;2024-03-25T03:47:34;97481.36;;;3.61;94.17
75247;BME280;63844;50.042;19.224;2024-03-25T03:49:10;97485.89;;;3.61;94.09
75247;BME280;63844;50.042;19.224;2024-03-25T03:50:46;97486.41;;;3.61;94.01
75247;BME280;63844;50.042;19.224;2024-03-25T03:52:23;97482.50;;;3.63;94.18
75247;BME280;63844;50.042;19.224;2024-03-25T03:53:59;97488.99;;;3.62;94.13
75247;BME280;63844;50.042;19.224;2024-03-25T03:55:36;97483.65;;;3.61;94.25
75247;BME280;63844;50.042;19.224;2024-03-25T03:57:12;97484.67;;;3.61;94.35
75247;BME280;63844;50.042;19.224;2024-03-25T03:58:49;97480.02;;;3.60;94.70
75247;BME280;63844;50.042;19.224;2024-03-25T04:00:25;97482.02;;;3.61;95.05
75247;BME280;63844;50.042;19.224;2024-03-25T04:02:01;97482.67;;;3.59;95.41
75247;BME280;63844;50.042;19.224;2024-03-25T04:03:39;97480.88;;;3.57;95.41
75247;BME280;63844;50.042;19.224;2024-03-25T04:05:15;97479.36;;;3.57;96.00
75247;BME280;63844;50.042;19.224;2024-03-25T04:06:52;97482.48;;;3.57;96.11
75247;BME280;63844;50.042;19.224;2024-03-25T04:08:29;97482.67;;;3.54;96.54
75247;BME280;63844;50.042;19.224;2024-03-25T04:10:05;97487.36;;;3.54;96.73
75247;BME280;63844;50.042;19.224;2024-03-25T04:11:42;97483.48;;;3.52;96.97
75247;BME280;63844;50.042;19.224;2024-03-25T04:13:18;97485.18;;;3.53;97.22
75247;BME280;63844;50.042;19.224;2024-03-25T04:14:56;97481.17;;;3.55;97.18
75247;BME280;63844;50.042;19.224;2024-03-25T04:16:32;97479.52;;;3.54;97.18
75247;BME280;63844;50.042;19.224;2024-03-25T04:18:09;97482.19;;;3.53;97.69
75247;BME280;63844;50.042;19.224;2024-03-25T04:19:45;97479.88;;;3.54;97.79
75247;BME280;63844;50.042;19.224;2024-03-25T04:21:22;97485.21;;;3.53;98.04
75247;BME280;63844;50.042;19.224;2024-03-25T04:22:58;97484.02;;;3.52;98.12
75247;BME280;63844;50.042;19.224;2024-03-25T04:24:35;97482.94;;;3.52;98.32
75247;BME280;63844;50.042;19.224;2024-03-25T04:26:12;97482.77;;;3.53;98.24
75247;BME280;63844;50.042;19.224;2024-03-25T04:27:48;97486.48;;;3.52;98.56
75247;BME280;63844;50.042;19.224;2024-03-25T04:29:25;97488.92;;;3.52;98.74
75247;BME280;63844;50.042;19.224;2024-03-25T04:31:01;97490.61;;;3.50;98.92
75247;BME280;63844;50.042;19.224;2024-03-25T04:32:39;97489.54;;;3.50;99.07
75247;BME280;63844;50.042;19.224;2024-03-25T04:34:18;97487.73;;;3.52;99.68
75247;BME280;63844;50.042;19.224;2024-03-25T04:35:59;97488.78;;;3.54;99.91
75247;BME280;63844;50.042;19.224;2024-03-25T04:37:36;97489.13;;;3.57;99.78
75247;BME280;63844;50.042;19.224;2024-03-25T04:39:12;97490.39;;;3.59;99.88
75247;BME280;63844;50.042;19.224;2024-03-25T04:40:48;97493.02;;;3.62;100.00
75247;BME280;63844;50.042;19.224;2024-03-25T04:42:26;97491.98;;;3.65;100.00
75247;BME280;63844;50.042;19.224;2024-03-25T04:44:02;97491.06;;;3.68;99.97
75247;BME280;63844;50.042;19.224;2024-03-25T04:45:39;97492.81;;;3.71;99.97
75247;BME280;63844;50.042;19.224;2024-03-25T04:47:16;97490.73;;;3.71;99.96
75247;BME280;63844;50.042;19.224;2024-03-25T04:48:52;97490.59;;;3.73;99.89
75247;BME280;63844;50.042;19.224;2024-03-25T04:50:30;97490.94;;;3.73;99.85
75247;BME280;63844;50.042;19.224;2024-03-25T04:52:07;97489.77;;;3.75;99.74
75247;BME280;63844;50.042;19.224;2024-03-25T04:53:43;97491.97;;;3.76;99.99
75247;BME280;63844;50.042;19.224;2024-03-25T04:55:20;97493.87;;;3.76;99.97
75247;BME280;63844;50.042;19.224;2024-03-25T04:56:56;97495.13;;;3.73;100.00
75247;BME280;63844;50.042;19.224;2024-03-25T04:58:33;97504.57;;;3.73;99.96
75247;BME280;63844;50.042;19.224;2024-03-25T05:00:10;97499.64;;;3.73;99.94
75247;BME280;63844;50.042;19.224;2024-03-25T05:01:47;97501.61;;;3.73;100.00
75247;BME280;63844;50.042;19.224;2024-03-25T05:03:24;97496.66;;;3.71;100.00
75247;BME280;63844;50.042;19.224;2024-03-25T05:05:00;97499.35;;;3.67;100.00
75247;BME280;63844;50.042;19.224;2024-03-25T05:06:36;97503.65;;;3.65;100.00
75247;BME280;63844;50.042;19.224;2024-03-25T05:08:13;97503.23;;;3.64;100.00
75247;BME280;63844;50.042;19.224;2024-03-25T05:09:49;97503.41;;;3.61;100.00
75247;BME280;63844;50.042;19.224;2024-03-25T05:11:27;97502.14;;;3.62;100.00
75247;BME280;63844;50.042;19.224;2024-03-25T05:13:04;97504.98;;;3.61;100.00
75247;BME280;63844;50.042;19.224;2024-03-25T05:14:40;97504.60;;;3.62;100.00
75247;BME280;63844;50.042;19.224;2024-03-25T05:16:16;97508.22;;;3.62;100.00
75247;BME280;63844;50.042;19.224;2024-03-25T05:17:53;97507.74;;;3.62;100.00
75247;BME280;63844;50.042;19.224;2024-03-25T05:19:29;97506.00;;;3.61;100.00
75247;BME280;63844;50.042;19.224;2024-03-25T05:21:05;97510.48;;;3.60;100.00
75247;BME280;63844;50.042;19.224;2024-03-25T05:22:42;97511.00;;;3.60;100.00
75247;BME280;63844;50.042;19.224;2024-03-25T05:24:18;97516.95;;;3.60;100.00
75247;BME280;63844;50.042;19.224;2024-03-25T05:25:54;97517.53;;;3.59;100.00
75247;BME280;63844;50.042;19.224;2024-03-25T05:27:31;97519.05;;;3.60;100.00
75247;BME280;63844;50.042;19.224;2024-03-25T05:29:07;97523.55;;;3.60;100.00
75247;BME280;63844;50.042;19.224;2024-03-25T05:30:44;97521.00;;;3.59;100.00
75247;BME280;63844;50.042;19.224;2024-03-25T05:32:21;97521.44;;;3.58;100.00
75247;BME280;63844;50.042;19.224;2024-03-25T05:33:58;97518.50;;;3.57;100.00
75247;BME280;63844;50.042;19.224;2024-03-25T05:35:36;97521.52;;;3.60;100.00
75247;BME280;63844;50.042;19.224;2024-03-25T05:37:12;97522.68;;;3.63;100.00
75247;BME280;63844;50.042;19.224;2024-03-25T05:38:49;97525.50;;;3.63;100.00
75247;BME280;63844;50.042;19.224;2024-03-25T05:40:25;97522.69;;;3.66;100.00
75247;BME280;63844;50.042;19.224;2024-03-25T05:42:02;97524.06;;;3.66;100.00
75247;BME280;63844;50.042;19.224;2024-03-25T05:43:38;97522.77;;;3.67;100.00
75247;BME280;63844;50.042;19.224;2024-03-25T05:45:15;97522.61;;;3.70;100.00
75247;BME280;63844;50.042;19.224;2024-03-25T05:46:52;97522.80;;;3.73;100.00
75247;BME280;63844;50.042;19.224;2024-03-25T05:48:28;97523.60;;;3.74;100.00
75247;BME280;63844;50.042;19.224;2024-03-25T05:50:06;97528.86;;;3.76;100.00
75247;BME280;63844;50.042;19.224;2024-03-25T05:51:44;97525.48;;;3.80;100.00
75247;BME280;63844;50.042;19.224;2024-03-25T05:53:20;97525.64;;;3.80;100.00
75247;BME280;63844;50.042;19.224;2024-03-25T05:54:56;97525.87;;;3.82;100.00
75247;BME280;63844;50.042;19.224;2024-03-25T05:56:33;97534.70;;;3.84;100.00
75247;BME280;63844;50.042;19.224;2024-03-25T05:58:10;97533.77;;;3.88;100.00
75247;BME280;63844;50.042;19.224;2024-03-25T05:59:46;97532.34;;;3.88;100.00
75247;BME280;63844;50.042;19.224;2024-03-25T06:01:23;97533.30;;;3.89;100.00
75247;BME280;63844;50.042;19.224;2024-03-25T06:02:59;97535.59;;;3.95;100.00
75247;BME280;63844;50.042;19.224;2024-03-25T06:04:35;97535.90;;;4.01;100.00
75247;BME280;63844;50.042;19.224;2024-03-25T06:06:12;97539.65;;;4.03;100.00
75247;BME280;63844;50.042;19.224;2024-03-25T06:07:48;97540.34;;;4.03;100.00
75247;BME280;63844;50.042;19.224;2024-03-25T06:09:24;97538.86;;;4.04;100.00
75247;BME280;63844;50.042;19.224;2024-03-25T06:11:01;97539.01;;;4.04;100.00
75247;BME280;63844;50.042;19.224;2024-03-25T06:12:38;97539.10;;;4.06;100.00
75247;BME280;63844;50.042;19.224;2024-03-25T06:14:14;97540.05;;;4.08;100.00
75247;BME280;63844;50.042;19.224;2024-03-25T06:15:50;97538.61;;;4.11;100.00
75247;BME280;63844;50.042;19.224;2024-03-25T06:17:27;97538.10;;;4.08;100.00
75247;BME280;63844;50.042;19.224;2024-03-25T06:19:03;97537.70;;;4.09;100.00
75247;BME280;63844;50.042;19.224;2024-03-25T06:20:39;97541.04;;;4.11;100.00
75247;BME280;63844;50.042;19.224;2024-03-25T06:22:16;97539.04;;;4.15;100.00
75247;BME280;63844;50.042;19.224;2024-03-25T06:23:53;97544.27;;;4.15;100.00
75247;BME280;63844;50.042;19.224;2024-03-25T06:25:29;97541.95;;;4.19;100.00
75247;BME280;63844;50.042;19.224;2024-03-25T06:27:06;97542.94;;;4.22;100.00
75247;BME280;63844;50.042;19.224;2024-03-25T06:28:42;97540.95;;;4.23;100.00
75247;BME280;63844;50.042;19.224;2024-03-25T06:30:19;97537.30;;;4.32;100.00
75247;BME280;63844;50.042;19.224;2024-03-25T06:32:14;97539.39;;;4.40;100.00
75247;BME280;63844;50.042;19.224;2024-03-25T06:34:09;97538.76;;;4.44;100.00
75247;BME280;63844;50.042;19.224;2024-03-25T06:35:55;97536.30;;;4.50;100.00
75247;BME280;63844;50.042;19.224;2024-03-25T06:37:31;97537.95;;;4.56;100.00
75247;BME280;63844;50.042;19.224;2024-03-25T06:39:07;97544.36;;;4.66;100.00
75247;BME280;63844;50.042;19.224;2024-03-25T06:40:45;97541.29;;;4.72;100.00
75247;BME280;63844;50.042;19.224;2024-03-25T06:42:22;97545.52;;;4.75;100.00
75247;BME280;63844;50.042;19.224;2024-03-25T06:43:58;97545.32;;;4.76;100.00
75247;BME280;63844;50.042;19.224;2024-03-25T06:45:34;97542.37;;;4.75;100.00
75247;BME280;63844;50.042;19.224;2024-03-25T06:47:11;97541.41;;;4.76;100.00
75247;BME280;63844;50.042;19.224;2024-03-25T06:48:47;97542.59;;;4.77;100.00
75247;BME280;63844;50.042;19.224;2024-03-25T06:50:24;97544.02;;;4.82;100.00
75247;BME280;63844;50.042;19.224;2024-03-25T06:52:00;97549.63;;;4.82;100.00
75247;BME280;63844;50.042;19.224;2024-03-25T06:53:37;97551.43;;;4.81;100.00
75247;BME280;63844;50.042;19.224;2024-03-25T06:55:13;97550.87;;;4.82;100.00
75247;BME280;63844;50.042;19.224;2024-03-25T06:56:50;97552.77;;;4.87;100.00
75247;BME280;63844;50.042;19.224;2024-03-25T06:58:27;97552.63;;;4.92;100.00
75247;BME280;63844;50.042;19.224;2024-03-25T07:00:04;97555.91;;;4.95;100.00
75247;BME280;63844;50.042;19.224;2024-03-25T07:01:46;97555.18;;;5.01;100.00
75247;BME280;63844;50.042;19.224;2024-03-25T07:03:23;97558.67;;;5.04;100.00
75247;BME280;63844;50.042;19.224;2024-03-25T07:05:00;97559.48;;;5.07;99.92
75247;BME280;63844;50.042;19.224;2024-03-25T07:06:36;97561.85;;;5.11;100.00
75247;BME280;63844;50.042;19.224;2024-03-25T07:08:13;97556.55;;;5.12;99.98
75247;BME280;63844;50.042;19.224;2024-03-25T07:09:49;97557.55;;;5.15;100.00
75247;BME280;63844;50.042;19.224;2024-03-25T07:11:26;97556.77;;;5.19;100.00
75247;BME280;63844;50.042;19.224;2024-03-25T07:13:02;97553.54;;;5.26;100.00
75247;BME280;63844;50.042;19.224;2024-03-25T07:14:38;97557.86;;;5.24;99.43
75247;BME280;63844;50.042;19.224;2024-03-25T07:16:15;97560.80;;;5.27;99.73
75247;BME280;63844;50.042;19.224;2024-03-25T07:17:51;97560.45;;;5.30;99.58
75247;BME280;63844;50.042;19.224;2024-03-25T07:19:27;97556.34;;;5.33;99.51
75247;BME280;63844;50.042;19.224;2024-03-25T07:21:04;97562.71;;;5.40;99.51
75247;BME280;63844;50.042;19.224;2024-03-25T07:22:40;97563.64;;;5.45;98.72
75247;BME280;63844;50.042;19.224;2024-03-25T07:24:16;97562.19;;;5.51;98.12
75247;BME280;63844;50.042;19.224;2024-03-25T07:25:53;97565.34;;;5.61;97.84
75247;BME280;63844;50.042;19.224;2024-03-25T07:27:29;97567.44;;;5.71;97.69
75247;BME280;63844;50.042;19.224;2024-03-25T07:29:05;97571.44;;;5.77;97.02
75247;BME280;63844;50.042;19.224;2024-03-25T07:30:42;97570.05;;;5.79;96.44
75247;BME280;63844;50.042;19.224;2024-03-25T07:32:18;97570.41;;;5.84;96.62
75247;BME280;63844;50.042;19.224;2024-03-25T07:33:54;97574.16;;;5.86;96.32
75247;BME280;63844;50.042;19.224;2024-03-25T07:35:31;97576.61;;;5.88;96.31
75247;BME280;63844;50.042;19.224;2024-03-25T07:37:07;97580.02;;;5.82;95.35
75247;BME280;63844;50.042;19.224;2024-03-25T07:38:44;97581.45;;;5.79;95.21
75247;BME280;63844;50.042;19.224;2024-03-25T07:40:21;97581.27;;;5.70;95.46
75247;BME280;63844;50.042;19.224;2024-03-25T07:41:58;97584.75;;;5.72;95.96
75247;BME280;63844;50.042;19.224;2024-03-25T07:43:35;97584.45;;;5.74;96.26
75247;BME280;63844;50.042;19.224;2024-03-25T07:45:11;97586.81;;;5.68;95.78
75247;BME280;63844;50.042;19.224;2024-03-25T07:46:48;97589.27;;;5.68;96.22
75247;BME280;63844;50.042;19.224;2024-03-25T07:48:24;97591.27;;;5.70;96.65
75247;BME280;63844;50.042;19.224;2024-03-25T07:50:01;97594.30;;;5.69;96.14
75247;BME280;63844;50.042;19.224;2024-03-25T07:51:38;97594.54;;;5.68;96.44
75247;BME280;63844;50.042;19.224;2024-03-25T07:53:15;97598.81;;;5.64;96.74
75247;BME280;63844;50.042;19.224;2024-03-25T07:54:52;97604.35;;;5.58;96.29
75247;BME280;63844;50.042;19.224;2024-03-25T07:56:28;97599.77;;;5.58;96.86
75247;BME280;63844;50.042;19.224;2024-03-25T07:58:05;97607.41;;;5.59;96.94
75247;BME280;63844;50.042;19.224;2024-03-25T07:59:41;97606.67;;;5.54;97.09
75247;BME280;63844;50.042;19.224;2024-03-25T08:01:18;97601.41;;;5.54;96.85
75247;BME280;63844;50.042;19.224;2024-03-25T08:02:54;97604.41;;;5.56;96.81
75247;BME280;63844;50.042;19.224;2024-03-25T08:04:30;97605.50;;;5.59;96.41
75247;BME280;63844;50.042;19.224;2024-03-25T08:06:07;97608.93;;;5.57;96.47
75247;BME280;63844;50.042;19.224;2024-03-25T08:07:43;97609.06;;;5.58;96.47
75247;BME280;63844;50.042;19.224;2024-03-25T08:09:19;97616.35;;;5.62;96.07
75247;BME280;63844;50.042;19.224;2024-03-25T08:10:56;97613.96;;;5.60;95.86
75247;BME280;63844;50.042;19.224;2024-03-25T08:12:32;97611.56;;;5.63;96.31
75247;BME280;63844;50.042;19.224;2024-03-25T08:14:09;97610.59;;;5.64;95.72
75247;BME280;63844;50.042;19.224;2024-03-25T08:15:46;97607.25;;;5.67;95.79
75247;BME280;63844;50.042;19.224;2024-03-25T08:17:22;97609.95;;;5.71;96.06
75247;BME280;63844;50.042;19.224;2024-03-25T08:18:58;97613.42;;;5.74;95.63
75247;BME280;63844;50.042;19.224;2024-03-25T08:20:35;97609.30;;;5.78;95.77
75247;BME280;63844;50.042;19.224;2024-03-25T08:22:12;97615.29;;;5.82;95.65
75247;BME280;63844;50.042;19.224;2024-03-25T08:23:48;97621.75;;;5.88;95.29
75247;BME280;63844;50.042;19.224;2024-03-25T08:25:25;97617.16;;;5.91;95.04
75247;BME280;63844;50.042;19.224;2024-03-25T08:27:01;97618.27;;;5.90;95.05
75247;BME280;63844;50.042;19.224;2024-03-25T08:28:39;97621.30;;;5.87;95.30
75247;BME280;63844;50.042;19.224;2024-03-25T08:30:15;97617.13;;;5.86;96.30
75247;BME280;63844;50.042;19.224;2024-03-25T08:31:52;97622.44;;;5.81;96.54